Terminal Aerodrome Forecast
Issued by NWS New Orleans/Baton Rouge, LA

Home | Current Version | Previous Version | Text Only | Print | Product List | Glossary On
Versions: 1 2 3 4 5 6 7 8 9 10 11 12 13 14 15 16 17 18 19 20 21 22 23 24 25 26 27 28 29 30 31 32 33 34
062
FTUS44 KLIX 172342
TAFNEW
TAF
KNEW 172342Z 1800/1824 19007KT P6SM SCT030 BKN250
     FM180400 16006KT P6SM BKN025
     FM180500 15006KT 5SM BR BKN015
     FM180700 14005KT 1/2SM FG OVC003
     FM181700 16007KT P6SM BKN008
     FM182000 16007KT P6SM VCSH BKN020=

USA.gov is the U.S. government's official web portal to all federal, state and local government web resources and services.